Arapahoe, NE

6:03 AM CDT on September 30, 2014 (GMT -0500)
Brewster | Change Station
CLOSE
Current Station
Airport
Location: Holdrege,
Elevation: 2310 ft
Nearby Weather Stations

Elev 2310 ft 40.45 °N, 99.34 °W | Updated 8 minutes ago

Mostly Cloudy
Mostly Cloudy
64 °F
Feels Like 64 °F
N
15
Wind Variable Wind from South
Gusts 22 mph

Today
High -- | Low -- °F
--% Chance of Precip.
Yesterday
High -- | Low -- °F
Precip. -- in
7:35 AM 7:23 PM
Waxing Crescent, 35% visible
Pressure 29.78 in
Visibility 10.0 miles
Clouds Scattered Clouds 3100 ft
Mostly Cloudy 5000 ft
Overcast 6000 ft
Dew Point 56 °F
Humidity 75%
Rainfall 0.00 in
Snow Depth Not available.
UV 0 out of 12
Pollen 5.00 out of 12
Air Quality Not available.
Flu Activity Not available.
METAR KHDE 301055Z AUTO 19013G19KT 10SM SCT031 BKN050 OVC060 18/14 A2978 RMK AO2 LTG DSNT NE T01800135

More Conditions Fewer Conditions

Pressure 29.78 in
Visibility 10.0 miles
Clouds Scattered Clouds 3100 ft
Mostly Cloudy 5000 ft
Overcast 6000 ft
Dew Point 56 °F
Humidity 75%
Rainfall 0.00 in
Snow Depth Not available.
UV 0 out of 12
Pollen 5.00 out of 12
Air Quality Not available.
Flu Activity Not available.
METAR KHDE 301055Z AUTO 19013G19KT 10SM SCT031 BKN050 OVC060 18/14 A2978 RMK AO2 LTG DSNT NE T01800135

More Conditions Fewer Conditions

10-Day Weather Forecast

Almanac

Astronomy

Sep. 30, 2014 Rise Set
Actual Time 7:35 AM CDT 7:23 PM CDT
Civil Twilight 7:07 AM CDT 7:50 PM CDT
Nautical Twilight 6:36 AM CDT 8:21 PM CDT
Astronomical Twilight 6:04 AM CDT 8:53 PM CDT
Moon 1:45 PM CDT 11:54 PM CDT
Length of Visible Light 12h 42m
Length of Day
11h 48m
Tomorrow will be 2m 39s shorter.
Waxing Crescent, 35% of the Moon is Illuminated
Today
Waxing Crescent
Oct 1
First Quarter
Oct 8
Full
Oct 15
Last Quarter
Oct 23
New

Today's Extremes

State Highs State Lows

Community

WunderPhotos

Upload Photos

1,757,612 photos uploaded!

WunderBlogs® & News

Nearby

Snow Depth

Station Depth Elevation
No new snow has been reported.

Earthquake Activity

City Distance Mag. Time & Date
No recent earthquake activity has been reported nearby.
Minimum magnitude displayed is 2.5.

Coastal Water Temperatures

Place Temperature
No Stations Reporting

Nearby Weather Stations